createdAt,value
2019-06-27T00:00:06.371Z,1010.00
2019-06-27T00:01:06.360Z,1009.94
2019-06-27T00:02:06.336Z,1009.93
2019-06-27T00:03:11.351Z,1010.11
2019-06-27T00:04:06.317Z,1010.08
2019-06-27T00:05:06.321Z,1009.98
2019-06-27T00:06:06.292Z,1010.02
2019-06-27T00:07:06.303Z,1010.06
2019-06-27T00:08:06.282Z,1010.04
2019-06-27T00:09:06.265Z,1010.01
2019-06-27T00:10:06.266Z,1010.09
2019-06-27T00:11:06.431Z,1010.09
2019-06-27T00:12:06.234Z,1010.10
2019-06-27T00:13:06.230Z,1010.07
2019-06-27T00:14:11.256Z,1010.08
2019-06-27T00:15:06.222Z,1010.09
2019-06-27T00:16:06.191Z,1010.03
2019-06-27T00:17:06.176Z,1010.14
2019-06-27T00:18:06.175Z,1010.15
2019-06-27T00:19:06.154Z,1010.10
2019-06-27T00:20:06.174Z,1010.14
2019-06-27T00:21:06.142Z,1010.14
2019-06-27T00:22:06.128Z,1010.12
2019-06-27T00:23:06.110Z,1010.11
2019-06-27T00:24:06.107Z,1010.11
2019-06-27T00:25:11.131Z,1010.12
2019-06-27T00:26:06.075Z,1010.13
2019-06-27T00:27:06.071Z,1010.13
2019-06-27T00:28:06.070Z,1010.09
2019-06-27T00:29:06.046Z,1010.12
2019-06-27T00:30:06.073Z,1010.09
2019-06-27T00:31:06.033Z,1010.12
2019-06-27T00:32:06.012Z,1010.18
2019-06-27T00:33:06.002Z,1010.17
2019-06-27T00:34:06.000Z,1010.18
2019-06-27T00:35:05.982Z,1010.20
2019-06-27T00:36:11.007Z,1010.29
2019-06-27T00:37:05.973Z,1010.19
2019-06-27T00:38:05.955Z,1010.23
2019-06-27T00:39:05.948Z,1010.25
2019-06-27T00:40:05.939Z,1010.30
2019-06-27T00:41:05.947Z,1010.30
2019-06-27T00:42:05.917Z,1010.18
2019-06-27T00:43:05.892Z,1010.20
2019-06-27T00:44:05.880Z,1010.26
2019-06-27T00:45:05.871Z,1010.21
2019-06-27T00:46:05.892Z,1010.24
2019-06-27T00:47:10.872Z,1010.24
2019-06-27T00:48:05.860Z,1010.25
2019-06-27T00:49:05.826Z,1010.19
2019-06-27T00:50:05.837Z,1010.34
2019-06-27T00:51:05.838Z,1010.37
2019-06-27T00:52:05.823Z,1010.31
2019-06-27T00:53:05.791Z,1010.27
2019-06-27T00:54:05.791Z,1010.25
2019-06-27T00:55:05.769Z,1010.31
2019-06-27T00:56:05.830Z,1010.31
2019-06-27T00:57:14.041Z,1010.32
2019-06-27T00:58:11.765Z,1010.29
2019-06-27T00:59:05.728Z,1010.36
2019-06-27T01:00:05.766Z,1010.38
2019-06-27T01:01:05.739Z,1010.34
2019-06-27T01:02:05.684Z,1010.31
2019-06-27T01:03:05.686Z,1010.34
2019-06-27T01:04:05.665Z,1010.34
2019-06-27T01:05:05.688Z,1010.35
2019-06-27T01:06:05.670Z,1010.33
2019-06-27T01:07:05.632Z,1010.32
2019-06-27T01:08:05.625Z,1010.37
2019-06-27T01:09:10.643Z,1010.33
2019-06-27T01:10:05.626Z,1010.36
2019-06-27T01:11:05.621Z,1010.42
2019-06-27T01:12:05.597Z,1010.40
2019-06-27T01:13:05.569Z,1010.38
2019-06-27T01:14:05.556Z,1010.28
2019-06-27T01:15:05.570Z,1010.40
2019-06-27T01:16:05.603Z,1010.43
2019-06-27T01:17:05.535Z,1010.40
2019-06-27T01:18:05.537Z,1010.41
2019-06-27T01:19:05.503Z,1010.38
2019-06-27T01:20:10.527Z,1010.40
2019-06-27T01:21:05.498Z,1010.45
2019-06-27T01:22:05.485Z,1010.44
2019-06-27T01:23:05.457Z,1010.51
2019-06-27T01:24:05.449Z,1010.53
2019-06-27T01:25:05.441Z,1010.45
2019-06-27T01:26:05.425Z,1010.48
2019-06-27T01:27:05.434Z,1010.53
2019-06-27T01:28:05.421Z,1010.57
2019-06-27T01:29:05.403Z,1010.57
2019-06-27T01:30:05.386Z,1010.55
2019-06-27T01:31:10.412Z,1010.58
2019-06-27T01:32:05.373Z,1010.61
2019-06-27T01:33:05.357Z,1010.55
2019-06-27T01:34:05.359Z,1010.55
2019-06-27T01:35:05.337Z,1010.53
2019-06-27T01:36:05.374Z,1010.53
2019-06-27T01:37:05.319Z,1010.60
2019-06-27T01:38:05.299Z,1010.57
2019-06-27T01:39:05.295Z,1010.61
2019-06-27T01:40:05.275Z,1010.64
2019-06-27T01:41:05.283Z,1010.61
2019-06-27T01:42:10.297Z,1010.59
2019-06-27T01:43:05.239Z,1010.62
2019-06-27T01:44:05.243Z,1010.60
2019-06-27T01:45:05.236Z,1010.64
2019-06-27T01:46:05.233Z,1010.57
2019-06-27T01:47:05.211Z,1010.61
2019-06-27T01:48:05.184Z,1010.60
2019-06-27T01:49:05.171Z,1010.61
2019-06-27T01:50:05.163Z,1010.60
2019-06-27T01:51:05.159Z,1010.64
2019-06-27T01:52:05.152Z,1010.59
2019-06-27T01:53:10.151Z,1010.59
2019-06-27T01:54:05.115Z,1010.57
2019-06-27T01:55:05.109Z,1010.59
2019-06-27T01:56:05.094Z,1010.60
2019-06-27T01:57:05.103Z,1010.62
2019-06-27T01:58:05.084Z,1010.63
2019-06-27T01:59:05.062Z,1010.57
2019-06-27T02:00:05.059Z,1010.62
2019-06-27T02:01:05.045Z,1010.57
2019-06-27T02:02:05.041Z,1010.59
2019-06-27T02:03:05.039Z,1010.68
2019-06-27T02:04:10.038Z,1010.66
2019-06-27T02:05:04.995Z,1010.67
2019-06-27T02:06:04.989Z,1010.69
2019-06-27T02:07:05.004Z,1010.69
2019-06-27T02:08:05.802Z,1010.65
2019-06-27T02:09:04.991Z,1010.69
2019-06-27T02:10:05.012Z,1010.73
2019-06-27T02:11:05.013Z,1010.70
2019-06-27T02:12:04.982Z,1010.71
2019-06-27T02:13:05.004Z,1010.80
2019-06-27T02:14:04.919Z,1010.82
2019-06-27T02:15:09.921Z,1010.79
2019-06-27T02:16:04.884Z,1010.81
2019-06-27T02:17:04.863Z,1010.84
2019-06-27T02:18:04.862Z,1010.77
2019-06-27T02:19:04.852Z,1010.89
2019-06-27T02:20:04.849Z,1010.84
2019-06-27T02:21:04.825Z,1010.81
2019-06-27T02:22:04.808Z,1010.85
2019-06-27T02:23:04.809Z,1010.84
2019-06-27T02:24:04.795Z,1010.80
2019-06-27T02:25:04.792Z,1010.82
2019-06-27T02:26:09.814Z,1010.83
2019-06-27T02:27:04.759Z,1010.84
2019-06-27T02:28:04.877Z,1010.81
2019-06-27T02:29:04.732Z,1010.75
2019-06-27T02:30:04.735Z,1010.76
2019-06-27T02:31:04.725Z,1010.84
2019-06-27T02:32:04.705Z,1010.86
2019-06-27T02:33:04.724Z,1010.90
2019-06-27T02:34:06.730Z,1010.78
2019-06-27T02:35:04.691Z,1010.79
2019-06-27T02:36:04.669Z,1010.84
2019-06-27T02:37:09.760Z,1010.79
2019-06-27T02:38:04.671Z,1010.74
2019-06-27T02:39:04.655Z,1010.79
2019-06-27T02:40:04.619Z,1010.84
2019-06-27T02:41:04.606Z,1010.87
2019-06-27T02:42:04.598Z,1010.80
2019-06-27T02:43:04.605Z,1010.83
2019-06-27T02:44:04.584Z,1010.79
2019-06-27T02:45:04.575Z,1010.83
2019-06-27T02:46:04.554Z,1010.88
2019-06-27T02:47:04.547Z,1010.83
2019-06-27T02:48:09.573Z,1010.82
2019-06-27T02:49:04.519Z,1010.77
2019-06-27T02:50:04.526Z,1010.86
2019-06-27T02:51:04.499Z,1010.83
2019-06-27T02:52:04.497Z,1010.85
2019-06-27T02:53:04.495Z,1010.88
2019-06-27T02:54:04.474Z,1010.86
2019-06-27T02:55:04.459Z,1010.84
2019-06-27T02:56:04.455Z,1010.85
2019-06-27T02:57:04.445Z,1010.84
2019-06-27T02:58:27.994Z,1010.84
2019-06-27T02:59:10.464Z,1010.86
2019-06-27T03:00:04.421Z,1010.88
2019-06-27T03:01:04.397Z,1010.80
2019-06-27T03:02:04.405Z,1010.85
2019-06-27T03:03:04.369Z,1010.84
2019-06-27T03:04:04.386Z,1010.82
2019-06-27T03:05:04.355Z,1010.83
2019-06-27T03:06:04.342Z,1010.83
2019-06-27T03:07:04.345Z,1010.89
2019-06-27T03:08:04.331Z,1010.88
2019-06-27T03:09:04.315Z,1010.89
2019-06-27T03:10:09.324Z,1010.88
2019-06-27T03:11:04.283Z,1010.85
2019-06-27T03:12:04.317Z,1010.91
2019-06-27T03:13:04.301Z,1010.88
2019-06-27T03:14:04.272Z,1010.84
2019-06-27T03:15:04.238Z,1010.87
2019-06-27T03:16:04.227Z,1010.84
2019-06-27T03:17:04.228Z,1010.83
2019-06-27T03:18:04.216Z,1010.84
2019-06-27T03:19:04.216Z,1010.86
2019-06-27T03:20:04.204Z,1010.90
2019-06-27T03:21:09.193Z,1010.89
2019-06-27T03:22:05.843Z,1010.94
2019-06-27T03:23:04.175Z,1010.86
2019-06-27T03:24:04.160Z,1010.91
2019-06-27T03:25:04.153Z,1010.86
2019-06-27T03:26:04.135Z,1010.87
2019-06-27T03:27:04.128Z,1010.81
2019-06-27T03:28:04.095Z,1010.82
2019-06-27T03:29:04.112Z,1010.86
2019-06-27T03:30:04.098Z,1010.84
2019-06-27T03:31:04.126Z,1010.84
2019-06-27T03:32:09.127Z,1010.87
2019-06-27T03:33:04.056Z,1010.90
2019-06-27T03:34:04.047Z,1010.96
2019-06-27T03:35:04.042Z,1010.86
2019-06-27T03:36:04.086Z,1010.89
2019-06-27T03:37:04.007Z,1010.92
2019-06-27T03:38:03.987Z,1010.90
2019-06-27T03:39:03.996Z,1010.89
2019-06-27T03:40:03.969Z,1010.94
2019-06-27T03:41:03.973Z,1010.94
2019-06-27T03:42:03.961Z,1010.94
2019-06-27T03:43:09.117Z,1010.96
2019-06-27T03:44:03.960Z,1010.94
2019-06-27T03:45:03.939Z,1010.94
2019-06-27T03:46:03.909Z,1010.91
2019-06-27T03:47:03.892Z,1010.89
2019-06-27T03:48:03.885Z,1010.96
2019-06-27T03:49:03.921Z,1010.93
2019-06-27T03:50:03.860Z,1010.95
2019-06-27T03:51:03.857Z,1010.96
2019-06-27T03:52:03.850Z,1010.96
2019-06-27T03:53:03.829Z,1010.95
2019-06-27T03:54:08.929Z,1010.99
2019-06-27T03:55:03.811Z,1011.02
2019-06-27T03:56:03.792Z,1010.99
2019-06-27T03:57:03.834Z,1011.07
2019-06-27T03:58:03.794Z,1011.02
2019-06-27T03:59:12.267Z,1011.10
2019-06-27T04:00:04.772Z,1011.02
2019-06-27T04:01:03.746Z,1011.11
2019-06-27T04:02:03.737Z,1011.11
2019-06-27T04:03:03.713Z,1011.11
2019-06-27T04:04:03.701Z,1011.06
2019-06-27T04:05:08.739Z,1011.12
2019-06-27T04:06:03.699Z,1011.10
2019-06-27T04:07:03.680Z,1011.04
2019-06-27T04:08:03.681Z,1011.02
2019-06-27T04:09:03.666Z,1011.04
2019-06-27T04:10:03.699Z,1011.11
2019-06-27T04:11:03.639Z,1011.19
2019-06-27T04:12:03.623Z,1011.08
2019-06-27T04:13:03.628Z,1011.13
2019-06-27T04:14:03.615Z,1011.07
2019-06-27T04:15:03.603Z,1011.21
2019-06-27T04:16:08.600Z,1011.16
2019-06-27T04:17:03.596Z,1011.10
2019-06-27T04:18:03.565Z,1011.16
2019-06-27T04:19:03.543Z,1011.13
2019-06-27T04:20:03.539Z,1011.09
2019-06-27T04:21:03.526Z,1011.09
2019-06-27T04:22:03.514Z,1011.11
2019-06-27T04:23:03.504Z,1011.09
2019-06-27T04:24:03.504Z,1011.21
2019-06-27T04:25:03.530Z,1011.16
2019-06-27T04:26:03.471Z,1011.22
2019-06-27T04:27:08.495Z,1011.25
2019-06-27T04:28:03.442Z,1011.17
2019-06-27T04:29:03.450Z,1011.23
2019-06-27T04:30:03.434Z,1011.28
2019-06-27T04:31:03.412Z,1011.19
2019-06-27T04:32:03.401Z,1011.25
2019-06-27T04:33:03.390Z,1011.23
2019-06-27T04:34:03.402Z,1011.25
2019-06-27T04:35:03.386Z,1011.22
2019-06-27T04:36:03.376Z,1011.23
2019-06-27T04:37:03.373Z,1011.28
2019-06-27T04:38:08.359Z,1011.25
2019-06-27T04:39:03.345Z,1011.29
2019-06-27T04:40:03.350Z,1011.26
2019-06-27T04:41:03.307Z,1011.29
2019-06-27T04:42:03.293Z,1011.27
2019-06-27T04:43:05.827Z,1011.33
2019-06-27T04:44:03.279Z,1011.26
2019-06-27T04:45:03.295Z,1011.31
2019-06-27T04:46:03.243Z,1011.35
2019-06-27T04:47:03.243Z,1011.31
2019-06-27T04:48:03.256Z,1011.31
2019-06-27T04:49:12.944Z,1011.28
2019-06-27T04:50:04.262Z,1011.40
2019-06-27T04:51:03.198Z,1011.39
2019-06-27T04:52:03.180Z,1011.38
2019-06-27T04:53:03.178Z,1011.38
2019-06-27T04:54:03.163Z,1011.36
2019-06-27T04:55:04.276Z,1011.41
2019-06-27T04:56:03.160Z,1011.36
2019-06-27T04:57:03.143Z,1011.35
2019-06-27T04:58:03.120Z,1011.42
2019-06-27T04:59:03.100Z,1011.40
2019-06-27T05:00:08.136Z,1011.41
2019-06-27T05:01:03.114Z,1011.38
2019-06-27T05:02:03.066Z,1011.43
2019-06-27T05:03:03.057Z,1011.40
2019-06-27T05:04:03.065Z,1011.44
2019-06-27T05:05:03.080Z,1011.45
2019-06-27T05:06:03.035Z,1011.49
2019-06-27T05:07:03.030Z,1011.49
2019-06-27T05:08:03.001Z,1011.52
2019-06-27T05:09:02.992Z,1011.49
2019-06-27T05:10:02.990Z,1011.56
2019-06-27T05:11:08.014Z,1011.52
2019-06-27T05:12:02.966Z,1011.54
2019-06-27T05:13:02.955Z,1011.57
2019-06-27T05:14:02.964Z,1011.56
2019-06-27T05:15:02.924Z,1011.59
2019-06-27T05:16:02.953Z,1011.62
2019-06-27T05:17:02.934Z,1011.57
2019-06-27T05:18:02.918Z,1011.61
2019-06-27T05:19:02.887Z,1011.60
2019-06-27T05:20:03.470Z,1011.63
2019-06-27T05:21:02.889Z,1011.74
2019-06-27T05:22:07.874Z,1011.68
2019-06-27T05:23:02.861Z,1011.71
2019-06-27T05:24:02.931Z,1011.66
2019-06-27T05:25:02.819Z,1011.64
2019-06-27T05:26:02.817Z,1011.70
2019-06-27T05:27:02.807Z,1011.65
2019-06-27T05:28:02.801Z,1011.72
2019-06-27T05:29:02.777Z,1011.65
2019-06-27T05:30:09.377Z,1011.71
2019-06-27T05:31:03.772Z,1011.75
2019-06-27T05:32:02.738Z,1011.80
2019-06-27T05:33:07.756Z,1011.81
2019-06-27T05:34:02.732Z,1011.81
2019-06-27T05:35:02.737Z,1011.84
2019-06-27T05:36:02.766Z,1011.82
2019-06-27T05:37:02.685Z,1011.88
2019-06-27T05:38:02.674Z,1011.84
2019-06-27T05:39:02.661Z,1011.86
2019-06-27T05:40:02.669Z,1011.83
2019-06-27T05:41:02.671Z,1011.84
2019-06-27T05:42:02.642Z,1011.91
2019-06-27T05:43:02.615Z,1011.91
2019-06-27T05:44:07.634Z,1011.90
2019-06-27T05:45:02.601Z,1011.87
2019-06-27T05:46:02.605Z,1011.94
2019-06-27T05:47:02.610Z,1012.01
2019-06-27T05:48:02.564Z,1012.00
2019-06-27T05:49:02.552Z,1011.99
2019-06-27T05:50:02.540Z,1011.90
2019-06-27T05:51:02.557Z,1012.02
2019-06-27T05:52:02.548Z,1012.01
2019-06-27T05:53:02.554Z,1011.98
2019-06-27T05:54:02.499Z,1011.97
2019-06-27T05:55:07.509Z,1011.97
2019-06-27T05:56:02.687Z,1012.02
2019-06-27T05:57:02.468Z,1011.89
2019-06-27T05:58:02.626Z,1012.00
2019-06-27T05:59:02.502Z,1012.00
2019-06-27T06:00:02.428Z,1011.98
2019-06-27T06:01:02.437Z,1011.96
2019-06-27T06:02:02.426Z,1012.01
2019-06-27T06:03:02.452Z,1012.07
2019-06-27T06:04:02.412Z,1012.01
2019-06-27T06:05:02.372Z,1012.05
2019-06-27T06:06:07.517Z,1012.08
2019-06-27T06:07:02.487Z,1012.02
2019-06-27T06:08:02.341Z,1012.02
2019-06-27T06:09:02.348Z,1011.97
2019-06-27T06:10:02.346Z,1012.03
2019-06-27T06:11:02.312Z,1012.04
2019-06-27T06:12:02.307Z,1012.06
2019-06-27T06:13:02.316Z,1011.99
2019-06-27T06:14:02.548Z,1012.01
2019-06-27T06:15:02.278Z,1012.08
2019-06-27T06:16:02.266Z,1012.07
2019-06-27T06:17:07.359Z,1012.10
2019-06-27T06:18:02.245Z,1012.06
2019-06-27T06:19:02.232Z,1012.09
2019-06-27T06:20:02.221Z,1012.08
2019-06-27T06:21:02.208Z,1012.10
2019-06-27T06:22:02.208Z,1012.10
2019-06-27T06:23:02.175Z,1012.13
2019-06-27T06:24:02.319Z,1012.11
2019-06-27T06:25:02.188Z,1012.13
2019-06-27T06:26:02.238Z,1012.12
2019-06-27T06:27:02.165Z,1012.18
2019-06-27T06:28:07.145Z,1012.08
2019-06-27T06:29:02.111Z,1012.13
2019-06-27T06:30:02.110Z,1012.14
2019-06-27T06:31:02.092Z,1012.13
2019-06-27T06:32:02.161Z,1012.23
2019-06-27T06:33:02.111Z,1012.25
2019-06-27T06:34:02.107Z,1012.13
2019-06-27T06:35:02.047Z,1012.21
2019-06-27T06:36:02.043Z,1012.24
2019-06-27T06:37:02.053Z,1012.20
2019-06-27T06:38:02.016Z,1012.26
2019-06-27T06:39:07.039Z,1012.17
2019-06-27T06:40:02.003Z,1012.25
2019-06-27T06:41:01.987Z,1012.28
2019-06-27T06:42:01.994Z,1012.22
2019-06-27T06:43:01.988Z,1012.32
2019-06-27T06:44:01.952Z,1012.26
2019-06-27T06:45:02.304Z,1012.23
2019-06-27T06:46:01.932Z,1012.29
2019-06-27T06:47:01.929Z,1012.19
2019-06-27T06:48:01.924Z,1012.21
2019-06-27T06:49:01.933Z,1012.29
2019-06-27T06:50:06.913Z,1012.20
2019-06-27T06:51:01.890Z,1012.19
2019-06-27T06:52:01.874Z,1012.19
2019-06-27T06:53:01.853Z,1012.18
2019-06-27T06:54:02.202Z,1012.25
2019-06-27T06:55:02.004Z,1012.24
2019-06-27T06:56:01.831Z,1012.24
2019-06-27T06:57:01.833Z,1012.28
2019-06-27T06:58:01.834Z,1012.25
2019-06-27T06:59:01.862Z,1012.31
2019-06-27T07:00:01.792Z,1012.32
2019-06-27T07:01:06.790Z,1012.27
2019-06-27T07:02:01.772Z,1012.27
2019-06-27T07:03:01.745Z,1012.24
2019-06-27T07:04:01.758Z,1012.39
2019-06-27T07:05:01.728Z,1012.32
2019-06-27T07:06:01.742Z,1012.32
2019-06-27T07:07:01.768Z,1012.30
2019-06-27T07:08:01.698Z,1012.33
2019-06-27T07:09:01.684Z,1012.33
2019-06-27T07:10:01.667Z,1012.26
2019-06-27T07:11:01.658Z,1012.20
2019-06-27T07:12:06.721Z,1012.26
2019-06-27T07:13:01.666Z,1012.22
2019-06-27T07:14:01.640Z,1012.31
2019-06-27T07:15:01.641Z,1012.30
2019-06-27T07:16:01.606Z,1012.29
2019-06-27T07:17:01.686Z,1012.31
2019-06-27T07:18:01.603Z,1012.25
2019-06-27T07:19:01.571Z,1012.21
2019-06-27T07:20:01.750Z,1012.21
2019-06-27T07:21:01.751Z,1012.32
2019-06-27T07:22:01.538Z,1012.36
2019-06-27T07:23:06.584Z,1012.31
2019-06-27T07:24:01.551Z,1012.33
2019-06-27T07:25:01.515Z,1012.34
2019-06-27T07:26:01.524Z,1012.28
2019-06-27T07:27:02.388Z,1012.24
2019-06-27T07:28:01.916Z,1012.27
2019-06-27T07:29:01.642Z,1012.30
2019-06-27T07:30:01.576Z,1012.31
2019-06-27T07:31:13.789Z,1012.33
2019-06-27T07:32:02.427Z,1012.30
2019-06-27T07:33:01.511Z,1012.38
2019-06-27T07:34:06.435Z,1012.28
2019-06-27T07:35:01.451Z,1012.27
2019-06-27T07:36:01.462Z,1012.26
2019-06-27T07:37:01.397Z,1012.26
2019-06-27T07:38:01.377Z,1012.35
2019-06-27T07:39:01.355Z,1012.32
2019-06-27T07:40:01.339Z,1012.29
2019-06-27T07:41:01.336Z,1012.29
2019-06-27T07:42:01.338Z,1012.31
2019-06-27T07:43:01.332Z,1012.27
2019-06-27T07:44:01.335Z,1012.24
2019-06-27T07:45:06.338Z,1012.35
2019-06-27T07:46:01.281Z,1012.40
2019-06-27T07:47:01.285Z,1012.36
2019-06-27T07:48:01.317Z,1012.31
2019-06-27T07:49:01.245Z,1012.36
2019-06-27T07:50:01.233Z,1012.40
2019-06-27T07:51:01.270Z,1012.39
2019-06-27T07:52:01.235Z,1012.33
2019-06-27T07:53:01.235Z,1012.37
2019-06-27T07:54:01.200Z,1012.46
2019-06-27T07:55:01.197Z,1012.36
2019-06-27T07:56:06.195Z,1012.37
2019-06-27T07:57:01.192Z,1012.30
2019-06-27T07:58:01.162Z,1012.36
2019-06-27T07:59:01.170Z,1012.38
2019-06-27T08:00:01.244Z,1012.39
2019-06-27T08:01:01.121Z,1012.42
2019-06-27T08:02:01.111Z,1012.37
2019-06-27T08:03:01.101Z,1012.42
2019-06-27T08:04:01.083Z,1012.34
2019-06-27T08:05:01.082Z,1012.35
2019-06-27T08:06:01.096Z,1012.39
2019-06-27T08:07:06.081Z,1012.35
2019-06-27T08:08:01.428Z,1012.36
2019-06-27T08:09:01.198Z,1012.34
2019-06-27T08:10:01.052Z,1012.43
2019-06-27T08:11:01.015Z,1012.33
2019-06-27T08:12:01.905Z,1012.39
2019-06-27T08:13:01.910Z,1012.38
2019-06-27T08:14:00.984Z,1012.44
2019-06-27T08:15:01.030Z,1012.37
2019-06-27T08:16:00.962Z,1012.45
2019-06-27T08:17:00.949Z,1012.42
2019-06-27T08:18:05.975Z,1012.35
2019-06-27T08:19:00.933Z,1012.31
2019-06-27T08:20:00.916Z,1012.34
2019-06-27T08:21:00.903Z,1012.51
2019-06-27T08:22:00.891Z,1012.44
2019-06-27T08:23:00.894Z,1012.37
2019-06-27T08:24:00.905Z,1012.38
2019-06-27T08:25:00.871Z,1012.37
2019-06-27T08:26:01.419Z,1012.39
2019-06-27T08:27:00.884Z,1012.37
2019-06-27T08:28:00.855Z,1012.33
2019-06-27T08:29:05.848Z,1012.37
2019-06-27T08:30:00.801Z,1012.33
2019-06-27T08:31:00.789Z,1012.34
2019-06-27T08:32:00.798Z,1012.31
2019-06-27T08:33:00.764Z,1012.34
2019-06-27T08:34:00.764Z,1012.31
2019-06-27T08:35:00.765Z,1012.23
2019-06-27T08:36:00.735Z,1012.31
2019-06-27T08:37:00.724Z,1012.25
2019-06-27T08:38:00.709Z,1012.25
2019-06-27T08:39:00.726Z,1012.24
2019-06-27T08:40:05.779Z,1012.29
2019-06-27T08:41:00.684Z,1012.28
2019-06-27T08:42:00.695Z,1012.27
2019-06-27T08:43:00.680Z,1012.23
2019-06-27T08:44:00.666Z,1012.28
2019-06-27T08:45:00.647Z,1012.27
2019-06-27T08:46:00.671Z,1012.24
2019-06-27T08:47:00.618Z,1012.25
2019-06-27T08:48:00.606Z,1012.28
2019-06-27T08:49:00.610Z,1012.33
2019-06-27T08:50:00.762Z,1012.27
2019-06-27T08:51:05.613Z,1012.25
2019-06-27T08:52:00.570Z,1012.25
2019-06-27T08:53:01.596Z,1012.25
2019-06-27T08:54:00.552Z,1012.23
2019-06-27T08:55:00.545Z,1012.27
2019-06-27T08:56:00.529Z,1012.23
2019-06-27T08:57:00.554Z,1012.26
2019-06-27T08:58:00.506Z,1012.22
2019-06-27T08:59:00.497Z,1012.24
2019-06-27T09:00:00.480Z,1012.20
2019-06-27T09:01:00.475Z,1012.23
2019-06-27T09:02:09.257Z,1012.22
2019-06-27T09:03:00.440Z,1012.29
2019-06-27T09:04:00.441Z,1012.23
2019-06-27T09:05:00.425Z,1012.26
2019-06-27T09:06:00.410Z,1012.27
2019-06-27T09:07:00.499Z,1012.29
2019-06-27T09:08:00.489Z,1012.30
2019-06-27T09:09:00.413Z,1012.23
2019-06-27T09:10:00.379Z,1012.19
2019-06-27T09:11:00.361Z,1012.22
2019-06-27T09:12:00.367Z,1012.19
2019-06-27T09:13:05.394Z,1012.30
2019-06-27T09:14:00.324Z,1012.32
2019-06-27T09:15:00.335Z,1012.29
2019-06-27T09:16:00.297Z,1012.24
2019-06-27T09:17:00.294Z,1012.23
2019-06-27T09:18:00.280Z,1012.23
2019-06-27T09:19:00.268Z,1012.25
2019-06-27T09:20:00.278Z,1012.22
2019-06-27T09:21:00.264Z,1012.23
2019-06-27T09:22:00.231Z,1012.12
2019-06-27T09:23:00.264Z,1012.25
2019-06-27T09:24:05.234Z,1012.16
2019-06-27T09:25:00.221Z,1012.23
2019-06-27T09:26:00.208Z,1012.22
2019-06-27T09:27:00.225Z,1012.25
2019-06-27T09:28:00.171Z,1012.32
2019-06-27T09:29:00.175Z,1012.27
2019-06-27T09:30:00.180Z,1012.29
2019-06-27T09:31:00.149Z,1012.29
2019-06-27T09:32:00.150Z,1012.31
2019-06-27T09:33:00.162Z,1012.33
2019-06-27T09:34:00.118Z,1012.31
2019-06-27T09:35:05.144Z,1012.30
2019-06-27T09:36:00.101Z,1012.23
2019-06-27T09:37:00.101Z,1012.36
2019-06-27T09:38:00.077Z,1012.36
2019-06-27T09:39:00.051Z,1012.38
2019-06-27T09:40:00.083Z,1012.58
2019-06-27T09:41:00.040Z,1012.31
2019-06-27T09:42:00.019Z,1012.61
2019-06-27T09:43:00.012Z,1012.51
2019-06-27T09:44:00.007Z,1012.33
2019-06-27T09:45:00.018Z,1012.53
2019-06-27T09:46:05.004Z,1012.51
2019-06-27T09:46:59.993Z,1012.37
2019-06-27T09:47:59.961Z,1012.53
2019-06-27T09:48:59.959Z,1012.57
2019-06-27T09:49:59.950Z,1012.40
2019-06-27T09:50:59.952Z,1012.44
2019-06-27T09:51:59.931Z,1012.53
2019-06-27T09:52:59.904Z,1012.50
2019-06-27T09:53:59.892Z,1012.51
2019-06-27T09:54:59.902Z,1012.47
2019-06-27T09:55:59.880Z,1012.47
2019-06-27T09:57:04.881Z,1012.38
2019-06-27T09:57:59.861Z,1012.57
2019-06-27T09:58:59.843Z,1012.57
2019-06-27T09:59:59.851Z,1012.34
2019-06-27T10:00:59.833Z,1012.32
2019-06-27T10:01:59.846Z,1012.36
2019-06-27T10:02:59.797Z,1012.40
2019-06-27T10:03:59.795Z,1012.28
2019-06-27T10:04:59.803Z,1012.30
2019-06-27T10:05:59.764Z,1012.38
2019-06-27T10:06:59.780Z,1012.32
2019-06-27T10:08:04.774Z,1012.32
2019-06-27T10:08:59.741Z,1012.33
2019-06-27T10:09:59.729Z,1012.25
2019-06-27T10:10:59.729Z,1012.31
2019-06-27T10:11:59.715Z,1012.30
2019-06-27T10:12:59.686Z,1012.25
2019-06-27T10:13:59.692Z,1012.28
2019-06-27T10:14:59.666Z,1012.28
2019-06-27T10:15:59.667Z,1012.34
2019-06-27T10:16:59.650Z,1012.40
2019-06-27T10:17:59.642Z,1012.35
2019-06-27T10:19:04.656Z,1012.41
2019-06-27T10:19:59.624Z,1012.33
2019-06-27T10:20:59.645Z,1012.36
2019-06-27T10:21:59.591Z,1012.35
2019-06-27T10:22:59.586Z,1012.41
2019-06-27T10:23:59.574Z,1012.30
2019-06-27T10:24:59.568Z,1012.39
2019-06-27T10:25:59.569Z,1012.34
2019-06-27T10:26:59.545Z,1012.22
2019-06-27T10:27:59.553Z,1012.34
2019-06-27T10:28:59.518Z,1012.35
2019-06-27T10:30:04.546Z,1012.28
2019-06-27T10:30:59.510Z,1012.28
2019-06-27T10:31:59.507Z,1012.32
2019-06-27T10:33:00.397Z,1012.30
2019-06-27T10:33:59.472Z,1012.47
2019-06-27T10:34:59.477Z,1012.43
2019-06-27T10:35:59.485Z,1012.34
2019-06-27T10:36:59.454Z,1012.33
2019-06-27T10:37:59.439Z,1012.31
2019-06-27T10:38:59.425Z,1012.30
2019-06-27T10:39:59.396Z,1012.33
2019-06-27T10:41:04.427Z,1012.31
2019-06-27T10:41:59.376Z,1012.38
2019-06-27T10:42:59.382Z,1012.31
2019-06-27T10:43:59.374Z,1012.20
2019-06-27T10:44:59.354Z,1012.33
2019-06-27T10:45:59.347Z,1012.38
2019-06-27T10:46:59.324Z,1012.37
2019-06-27T10:47:59.312Z,1012.21
2019-06-27T10:48:59.360Z,1012.24
2019-06-27T10:49:59.291Z,1012.22
2019-06-27T10:50:59.315Z,1012.25
2019-06-27T10:52:04.297Z,1012.21
2019-06-27T10:52:59.264Z,1012.32
2019-06-27T10:53:59.255Z,1012.31
2019-06-27T10:54:59.273Z,1012.30
2019-06-27T10:55:59.297Z,1012.36
2019-06-27T10:56:59.221Z,1012.25
2019-06-27T10:57:59.339Z,1012.33
2019-06-27T10:58:59.203Z,1012.24
2019-06-27T10:59:59.191Z,1012.34
2019-06-27T11:00:59.197Z,1012.20
2019-06-27T11:01:59.184Z,1012.25
2019-06-27T11:03:14.880Z,1012.25
2019-06-27T11:04:00.198Z,1012.18
2019-06-27T11:04:59.157Z,1012.21
2019-06-27T11:05:59.134Z,1012.18
2019-06-27T11:06:59.142Z,1012.30
2019-06-27T11:07:59.101Z,1012.29
2019-06-27T11:08:59.093Z,1012.11
2019-06-27T11:09:59.099Z,1012.16
2019-06-27T11:10:59.083Z,1012.17
2019-06-27T11:11:59.088Z,1012.31
2019-06-27T11:12:59.681Z,1012.10
2019-06-27T11:14:04.082Z,1012.34
2019-06-27T11:14:59.951Z,1012.25
2019-06-27T11:15:59.015Z,1012.13
2019-06-27T11:16:59.029Z,1012.22
2019-06-27T11:17:58.995Z,1012.36
2019-06-27T11:18:58.990Z,1012.10
2019-06-27T11:19:58.993Z,1012.27
2019-06-27T11:20:58.961Z,1012.11
2019-06-27T11:21:58.962Z,1012.42
2019-06-27T11:22:58.937Z,1012.39
2019-06-27T11:23:58.928Z,1012.47
2019-06-27T11:25:03.955Z,1012.42
2019-06-27T11:25:58.935Z,1012.39
2019-06-27T11:26:58.994Z,1012.33
2019-06-27T11:27:58.908Z,1012.30
2019-06-27T11:28:58.907Z,1012.34
2019-06-27T11:29:58.894Z,1012.41
2019-06-27T11:30:58.898Z,1012.38
2019-06-27T11:31:58.870Z,1012.30
2019-06-27T11:32:58.843Z,1012.38
2019-06-27T11:33:58.846Z,1012.35
2019-06-27T11:34:58.827Z,1012.30
2019-06-27T11:35:58.809Z,1012.30
2019-06-27T11:36:59.010Z,1012.26
2019-06-27T11:38:03.813Z,1012.31
2019-06-27T11:38:58.817Z,1012.30
2019-06-27T11:39:58.772Z,1012.20
2019-06-27T11:40:58.768Z,1012.20
2019-06-27T11:41:58.777Z,1012.21
2019-06-27T11:42:58.743Z,1012.26
2019-06-27T11:43:58.730Z,1012.17
2019-06-27T11:44:58.721Z,1012.21
2019-06-27T11:45:58.713Z,1012.25
2019-06-27T11:46:58.740Z,1012.18
2019-06-27T11:47:58.704Z,1012.13
2019-06-27T11:49:03.706Z,1012.26
2019-06-27T11:49:58.693Z,1012.23
2019-06-27T11:50:58.687Z,1012.19
2019-06-27T11:51:58.685Z,1012.19
2019-06-27T11:52:58.646Z,1012.16
2019-06-27T11:53:58.650Z,1012.24
2019-06-27T11:54:58.626Z,1012.07
2019-06-27T11:55:58.672Z,1012.04
2019-06-27T11:56:58.608Z,1012.08
2019-06-27T11:57:58.614Z,1012.07
2019-06-27T11:58:58.596Z,1012.16
2019-06-27T12:00:03.601Z,1012.19
2019-06-27T12:00:58.599Z,1012.10
2019-06-27T12:01:58.583Z,1012.08
2019-06-27T12:02:58.578Z,1012.05
2019-06-27T12:03:58.537Z,1012.01
2019-06-27T12:04:58.533Z,1012.09